Savannah Hilton Head International Airport
KSAV : rendu visible

Aérodrome :











RETROUVEZ-NOUS SUR...

 
LOGIN :

S'inscrire | Disclaimer

   EN    FR    IT 

 









Légende :    VFR   VFR Marginal   IFR   IFR Intensif   IFR Très Intensif
Visi : 
Plafond : 
>= 8 km
>= 3000ft
5 à 8 km
1000 à 3000 ft
1500m à 5 km
500 à 1000 ft
800 à 1500m
200 à 500 ft
< 800m
< 200 ft
Symboles :   Orages  Brouillard  Fortes neiges  Fortes précipitations  Vent > 20 kt






- Altitude de l'aérodrome : 50 ft
- Code IATA : SAV


KSAV - Savannah Hilton Head International

DERNIER METAR :
  • 100653Z AUTO 19006KT 10SM CLR 18/16 A3007 RMK AO2 SLP181 T01780161

METARs EXPIRÉS :
  • 100553Z AUTO 20006KT 10SM CLR 19/17 A3007 RMK AO2 SLP182 T01890167 10189 20167 50000
  • 100453Z 19006KT 10SM BKN250 18/16 A3008 RMK AO2 SLP183 LAST T01780161 402560094

TAF KSAV
Valide du 10 à 06h jusqu'au 11 à 06h UTC


100520Z 1006/1106 20006KT P6SM SCT015 BKN250
FM101000 20005KT 5SM BR SCT008 BKN015
FM101500 21011G17KT P6SM SCT050 BKN250
FM110000 18007KT P6SM SCT070 OVC120



MET'MAP, la Météo Aéronautique d'un coup d'oeil ! - Copyright ORBIFLY Décembre 2007 - Disclaimer

ORBIFLY MET'MAP TEAM :

Programmation & Développement : Alexandra Zaïnal
Sur une idée originale de : Baudouin d'Aumeries
Assistance à la programmation : Marc-Olivier Méhu
Soutien technique & logistique : Manuel Goepfert

Contact : metmap@orbifly.com




SOURCES & CREDITS :

   NOAA       Earth
Advisory